sensor_id;sensor_type;location;lat;lon;timestamp;pressure;altitude;pressure_sealevel;temperature;humidity
45467;BME280;31212;49.734;8.490;2023-02-19T00:00:03;100862.00;;;9.78;78.01
45467;BME280;31212;49.734;8.490;2023-02-19T00:02:40;100864.59;;;9.78;77.69
45467;BME280;31212;49.734;8.490;2023-02-19T00:05:06;100867.16;;;9.76;78.06
45467;BME280;31212;49.734;8.490;2023-02-19T00:07:33;100857.66;;;9.77;77.50
45467;BME280;31212;49.734;8.490;2023-02-19T00:09:59;100830.94;;;9.81;78.06
45467;BME280;31212;49.734;8.490;2023-02-19T00:12:26;100830.03;;;9.77;77.94
45467;BME280;31212;49.734;8.490;2023-02-19T00:14:52;100836.06;;;9.76;78.03
45467;BME280;31212;49.734;8.490;2023-02-19T00:17:21;100835.22;;;9.77;77.75
45467;BME280;31212;49.734;8.490;2023-02-19T00:19:49;100833.47;;;9.78;77.81
45467;BME280;31212;49.734;8.490;2023-02-19T00:22:15;100833.53;;;9.81;77.62
45467;BME280;31212;49.734;8.490;2023-02-19T00:24:41;100843.84;;;9.78;77.60
45467;BME280;31212;49.734;8.490;2023-02-19T00:27:08;100836.06;;;9.76;77.66
45467;BME280;31212;49.734;8.490;2023-02-19T00:29:34;100834.38;;;9.79;77.90
45467;BME280;31212;49.734;8.490;2023-02-19T00:32:01;100828.25;;;9.75;78.31
45467;BME280;31212;49.734;8.490;2023-02-19T00:34:28;100842.03;;;9.71;78.03
45467;BME280;31212;49.734;8.490;2023-02-19T00:36:56;100835.19;;;9.74;78.16
45467;BME280;31212;49.734;8.490;2023-02-19T00:39:22;100832.59;;;9.76;78.87
45467;BME280;31212;49.734;8.490;2023-02-19T00:41:50;100842.06;;;9.72;78.41
45467;BME280;31212;49.734;8.490;2023-02-19T00:44:16;100851.50;;;9.69;79.02
45467;BME280;31212;49.734;8.490;2023-02-19T00:46:44;100858.38;;;9.65;79.07
45467;BME280;31212;49.734;8.490;2023-02-19T00:49:14;100866.06;;;9.60;78.87
45467;BME280;31212;49.734;8.490;2023-02-19T00:51:41;100878.22;;;9.63;78.91
45467;BME280;31212;49.734;8.490;2023-02-19T00:54:10;100877.28;;;9.59;79.50
45467;BME280;31212;49.734;8.490;2023-02-19T00:56:36;100882.59;;;9.67;79.52
45467;BME280;31212;49.734;8.490;2023-02-19T00:59:03;100881.75;;;9.68;79.29
45467;BME280;31212;49.734;8.490;2023-02-19T01:01:30;100898.19;;;9.70;79.36
45467;BME280;31212;49.734;8.490;2023-02-19T01:03:56;100895.56;;;9.69;79.08
45467;BME280;31212;49.734;8.490;2023-02-19T01:06:23;100893.00;;;9.70;79.30
45467;BME280;31212;49.734;8.490;2023-02-19T01:08:49;100891.22;;;9.66;79.42
45467;BME280;31212;49.734;8.490;2023-02-19T01:11:17;100865.22;;;9.60;79.79
45467;BME280;31212;49.734;8.490;2023-02-19T01:13:44;100867.81;;;9.62;79.95
45467;BME280;31212;49.734;8.490;2023-02-19T01:16:13;100880.75;;;9.58;79.97
45467;BME280;31212;49.734;8.490;2023-02-19T01:18:41;100905.72;;;9.53;80.77
45467;BME280;31212;49.734;8.490;2023-02-19T01:21:10;100916.91;;;9.51;80.95
45467;BME280;31212;49.734;8.490;2023-02-19T01:23:38;100926.41;;;9.50;81.43
45467;BME280;31212;49.734;8.490;2023-02-19T01:26:05;100936.69;;;9.46;81.85
45467;BME280;31212;49.734;8.490;2023-02-19T01:28:34;100934.13;;;9.47;82.11
45467;BME280;31212;49.734;8.490;2023-02-19T01:31:01;100936.72;;;9.47;82.12
45467;BME280;31212;49.734;8.490;2023-02-19T01:33:29;100931.50;;;9.44;82.07
45467;BME280;31212;49.734;8.490;2023-02-19T01:35:55;100929.81;;;9.46;82.22
45467;BME280;31212;49.734;8.490;2023-02-19T01:38:22;100921.09;;;9.42;82.09
45467;BME280;31212;49.734;8.490;2023-02-19T01:40:53;100903.81;;;9.43;82.04
45467;BME280;31212;49.734;8.490;2023-02-19T01:43:20;100903.00;;;9.44;81.87
45467;BME280;31212;49.734;8.490;2023-02-19T01:45:48;100905.56;;;9.44;82.12
45467;BME280;31212;49.734;8.490;2023-02-19T01:48:17;100902.16;;;9.45;82.20
45467;BME280;31212;49.734;8.490;2023-02-19T01:50:49;100897.81;;;9.46;81.78
45467;BME280;31212;49.734;8.490;2023-02-19T01:53:20;100898.78;;;9.52;81.88
45467;BME280;31212;49.734;8.490;2023-02-19T01:55:50;100894.34;;;9.43;82.33
45467;BME280;31212;49.734;8.490;2023-02-19T01:58:18;100889.19;;;9.45;82.03
45467;BME280;31212;49.734;8.490;2023-02-19T02:00:47;100890.03;;;9.44;82.47
45467;BME280;31212;49.734;8.490;2023-02-19T02:03:16;100892.56;;;9.39;82.41
45467;BME280;31212;49.734;8.490;2023-02-19T02:05:48;100893.47;;;9.43;82.65
45467;BME280;31212;49.734;8.490;2023-02-19T02:08:18;100887.41;;;9.42;82.75
45467;BME280;31212;49.734;8.490;2023-02-19T02:11:03;100888.22;;;9.38;82.74
45467;BME280;31212;49.734;8.490;2023-02-19T02:13:32;100890.81;;;9.38;82.74
45467;BME280;31212;49.734;8.490;2023-02-19T02:16:09;100891.63;;;9.36;82.78
45467;BME280;31212;49.734;8.490;2023-02-19T02:18:46;100899.41;;;9.36;82.98
45467;BME280;31212;49.734;8.490;2023-02-19T02:21:32;100886.44;;;9.36;83.19
45467;BME280;31212;49.734;8.490;2023-02-19T02:24:11;100887.28;;;9.33;83.25
45467;BME280;31212;49.734;8.490;2023-02-19T02:26:50;100883.81;;;9.33;82.91
45467;BME280;31212;49.734;8.490;2023-02-19T02:29:53;100885.63;;;9.38;83.32
45467;BME280;31212;49.734;8.490;2023-02-19T02:32:32;100884.69;;;9.35;83.31
45467;BME280;31212;49.734;8.490;2023-02-19T02:35:06;100876.91;;;9.33;83.45
45467;BME280;31212;49.734;8.490;2023-02-19T02:37:38;100875.16;;;9.32;83.36
45467;BME280;31212;49.734;8.490;2023-02-19T02:40:07;100877.84;;;9.37;83.10
45467;BME280;31212;49.734;8.490;2023-02-19T02:42:37;100877.75;;;9.32;83.45
45467;BME280;31212;49.734;8.490;2023-02-19T02:45:22;100877.75;;;9.32;83.11
45467;BME280;31212;49.734;8.490;2023-02-19T02:48:22;100869.16;;;9.36;83.00
45467;BME280;31212;49.734;8.490;2023-02-19T02:50:53;100880.44;;;9.37;83.28
45467;BME280;31212;49.734;8.490;2023-02-19T02:53:26;100874.47;;;9.42;83.44
45467;BME280;31212;49.734;8.490;2023-02-19T02:56:13;100869.25;;;9.39;82.94
45467;BME280;31212;49.734;8.490;2023-02-19T02:58:42;100866.66;;;9.39;82.85
45467;BME280;31212;49.734;8.490;2023-02-19T03:01:16;100865.75;;;9.39;83.07
45467;BME280;31212;49.734;8.490;2023-02-19T03:04:04;100867.47;;;9.37;83.28
45467;BME280;31212;49.734;8.490;2023-02-19T03:06:33;100847.63;;;9.40;83.20
45467;BME280;31212;49.734;8.490;2023-02-19T03:09:09;100839.84;;;9.39;83.22
45467;BME280;31212;49.734;8.490;2023-02-19T03:11:39;100843.25;;;9.36;83.43
45467;BME280;31212;49.734;8.490;2023-02-19T03:14:30;100843.28;;;9.38;83.22
45467;BME280;31212;49.734;8.490;2023-02-19T03:17:21;100845.78;;;9.30;83.65
45467;BME280;31212;49.734;8.490;2023-02-19T03:20:22;100847.41;;;9.23;83.25
45467;BME280;31212;49.734;8.490;2023-02-19T03:22:50;100851.78;;;9.28;83.98
45467;BME280;31212;49.734;8.490;2023-02-19T03:25:23;100844.88;;;9.28;83.30
45467;BME280;31212;49.734;8.490;2023-02-19T03:28:13;100843.19;;;9.30;83.61
45467;BME280;31212;49.734;8.490;2023-02-19T03:30:44;100845.75;;;9.29;83.67
45467;BME280;31212;49.734;8.490;2023-02-19T03:33:16;100844.94;;;9.33;83.67
45467;BME280;31212;49.734;8.490;2023-02-19T03:35:47;100842.41;;;9.36;83.39
45467;BME280;31212;49.734;8.490;2023-02-19T03:38:18;100854.53;;;9.38;83.40
45467;BME280;31212;49.734;8.490;2023-02-19T03:40:52;100848.56;;;9.44;83.37
45467;BME280;31212;49.734;8.490;2023-02-19T03:43:22;100843.38;;;9.44;83.02
45467;BME280;31212;49.734;8.490;2023-02-19T03:45:55;100839.06;;;9.45;82.81
45467;BME280;31212;49.734;8.490;2023-02-19T03:48:32;100825.34;;;9.52;82.52
45467;BME280;31212;49.734;8.490;2023-02-19T03:51:13;100824.41;;;9.45;83.03
45467;BME280;31212;49.734;8.490;2023-02-19T03:53:50;100821.84;;;9.50;82.38
45467;BME280;31212;49.734;8.490;2023-02-19T03:56:21;100827.03;;;9.48;82.39
45467;BME280;31212;49.734;8.490;2023-02-19T03:58:55;100839.06;;;9.45;82.60
45467;BME280;31212;49.734;8.490;2023-02-19T04:01:27;100832.09;;;9.42;82.73
45467;BME280;31212;49.734;8.490;2023-02-19T04:04:00;100836.50;;;9.46;82.42
45467;BME280;31212;49.734;8.490;2023-02-19T04:06:30;100844.31;;;9.48;82.54
45467;BME280;31212;49.734;8.490;2023-02-19T04:09:00;100846.00;;;9.46;82.40
45467;BME280;31212;49.734;8.490;2023-02-19T04:11:29;100846.06;;;9.50;82.67
45467;BME280;31212;49.734;8.490;2023-02-19T04:14:06;100830.53;;;9.52;82.68
45467;BME280;31212;49.734;8.490;2023-02-19T04:16:37;100840.81;;;9.46;82.46
45467;BME280;31212;49.734;8.490;2023-02-19T04:19:10;100839.13;;;9.48;82.69
45467;BME280;31212;49.734;8.490;2023-02-19T04:21:39;100840.84;;;9.49;82.46
45467;BME280;31212;49.734;8.490;2023-02-19T04:24:11;100843.38;;;9.44;82.58
45467;BME280;31212;49.734;8.490;2023-02-19T04:26:39;100845.13;;;9.43;82.52
45467;BME280;31212;49.734;8.490;2023-02-19T04:29:06;100844.22;;;9.43;82.67
45467;BME280;31212;49.734;8.490;2023-02-19T04:31:34;100841.59;;;9.40;82.80
45467;BME280;31212;49.734;8.490;2023-02-19T04:34:00;100851.97;;;9.41;83.04
45467;BME280;31212;49.734;8.490;2023-02-19T04:36:29;100853.72;;;9.42;83.08
45467;BME280;31212;49.734;8.490;2023-02-19T04:38:56;100860.63;;;9.42;83.30
45467;BME280;31212;49.734;8.490;2023-02-19T04:41:22;100858.00;;;9.40;82.98
45467;BME280;31212;49.734;8.490;2023-02-19T04:43:49;100851.03;;;9.36;82.98
45467;BME280;31212;49.734;8.490;2023-02-19T04:46:15;100869.16;;;9.35;83.21
45467;BME280;31212;49.734;8.490;2023-02-19T04:48:42;100881.13;;;9.26;83.17
45467;BME280;31212;49.734;8.490;2023-02-19T04:51:09;100875.00;;;9.23;83.27
45467;BME280;31212;49.734;8.490;2023-02-19T04:53:37;100886.28;;;9.26;83.55
45467;BME280;31212;49.734;8.490;2023-02-19T04:56:05;100888.00;;;9.24;83.58
45467;BME280;31212;49.734;8.490;2023-02-19T04:58:31;100894.88;;;9.22;83.77
45467;BME280;31212;49.734;8.490;2023-02-19T05:00:58;100895.84;;;9.29;83.81
45467;BME280;31212;49.734;8.490;2023-02-19T05:03:24;100903.50;;;9.23;83.76
45467;BME280;31212;49.734;8.490;2023-02-19T05:05:51;100895.81;;;9.28;83.84
45467;BME280;31212;49.734;8.490;2023-02-19T05:08:18;100897.59;;;9.30;83.51
45467;BME280;31212;49.734;8.490;2023-02-19T05:10:45;100901.00;;;9.28;83.96
45467;BME280;31212;49.734;8.490;2023-02-19T05:13:12;100904.47;;;9.30;83.93
45467;BME280;31212;49.734;8.490;2023-02-19T05:15:38;100912.16;;;9.23;84.17
45467;BME280;31212;49.734;8.490;2023-02-19T05:18:05;100927.75;;;9.26;84.38
45467;BME280;31212;49.734;8.490;2023-02-19T05:20:31;100926.09;;;9.30;83.94
45467;BME280;31212;49.734;8.490;2023-02-19T05:22:58;100934.66;;;9.26;84.49
45467;BME280;31212;49.734;8.490;2023-02-19T05:25:24;100941.63;;;9.30;84.59
45467;BME280;31212;49.734;8.490;2023-02-19T05:27:52;100943.34;;;9.31;84.27
45467;BME280;31212;49.734;8.490;2023-02-19T05:30:39;100939.94;;;9.34;84.13
45467;BME280;31212;49.734;8.490;2023-02-19T05:33:05;100935.66;;;9.34;84.28
45467;BME280;31212;49.734;8.490;2023-02-19T05:35:32;100926.19;;;9.38;83.79
45467;BME280;31212;49.734;8.490;2023-02-19T05:37:58;100934.84;;;9.37;83.65
45467;BME280;31212;49.734;8.490;2023-02-19T05:40:24;100937.47;;;9.40;83.63
45467;BME280;31212;49.734;8.490;2023-02-19T05:42:52;100937.47;;;9.40;83.61
45467;BME280;31212;49.734;8.490;2023-02-19T05:45:19;100938.28;;;9.36;83.96
45467;BME280;31212;49.734;8.490;2023-02-19T05:47:45;100954.63;;;9.32;84.55
45467;BME280;31212;49.734;8.490;2023-02-19T05:50:11;100952.84;;;9.29;84.75
45467;BME280;31212;49.734;8.490;2023-02-19T05:52:38;100966.63;;;9.26;85.48
45467;BME280;31212;49.734;8.490;2023-02-19T05:55:05;101000.97;;;9.16;86.04
45467;BME280;31212;49.734;8.490;2023-02-19T05:57:31;101012.97;;;9.11;86.42
45467;BME280;31212;49.734;8.490;2023-02-19T05:59:59;101032.84;;;9.12;86.92
45467;BME280;31212;49.734;8.490;2023-02-19T06:02:26;101047.44;;;9.07;87.65
45467;BME280;31212;49.734;8.490;2023-02-19T06:04:52;101064.56;;;9.00;88.28
45467;BME280;31212;49.734;8.490;2023-02-19T06:07:19;101061.94;;;8.99;88.77
45467;BME280;31212;49.734;8.490;2023-02-19T06:09:49;101066.94;;;8.89;89.28
45467;BME280;31212;49.734;8.490;2023-02-19T06:12:15;101072.84;;;8.84;89.97
45467;BME280;31212;49.734;8.490;2023-02-19T06:14:42;101064.06;;;8.77;90.62
45467;BME280;31212;49.734;8.490;2023-02-19T06:17:09;101061.47;;;8.75;90.58
45467;BME280;31212;49.734;8.490;2023-02-19T06:19:36;101058.91;;;8.77;91.10
45467;BME280;31212;49.734;8.490;2023-02-19T06:22:02;101066.63;;;8.75;91.54
45467;BME280;31212;49.734;8.490;2023-02-19T06:24:29;101073.50;;;8.73;91.71
45467;BME280;31212;49.734;8.490;2023-02-19T06:26:55;101075.16;;;8.70;92.05
45467;BME280;31212;49.734;8.490;2023-02-19T06:29:22;101080.31;;;8.70;92.08
45467;BME280;31212;49.734;8.490;2023-02-19T06:31:49;101081.16;;;8.69;92.55
45467;BME280;31212;49.734;8.490;2023-02-19T06:34:16;101082.84;;;8.67;92.35
45467;BME280;31212;49.734;8.490;2023-02-19T06:36:43;101083.84;;;8.72;92.16
45467;BME280;31212;49.734;8.490;2023-02-19T06:39:09;101077.00;;;8.75;92.23
45467;BME280;31212;49.734;8.490;2023-02-19T06:41:36;101079.50;;;8.71;92.48
45467;BME280;31212;49.734;8.490;2023-02-19T06:44:02;101085.53;;;8.71;92.27
45467;BME280;31212;49.734;8.490;2023-02-19T06:46:29;101090.78;;;8.74;92.20
45467;BME280;31212;49.734;8.490;2023-02-19T06:48:55;101089.09;;;8.77;92.31
45467;BME280;31212;49.734;8.490;2023-02-19T06:51:23;101094.34;;;8.80;92.22
45467;BME280;31212;49.734;8.490;2023-02-19T06:53:51;101099.59;;;8.83;91.81
45467;BME280;31212;49.734;8.490;2023-02-19T06:56:23;101097.81;;;8.80;91.97
45467;BME280;31212;49.734;8.490;2023-02-19T06:58:51;101103.88;;;8.82;91.93
45467;BME280;31212;49.734;8.490;2023-02-19T07:01:17;101098.69;;;8.81;91.85
45467;BME280;31212;49.734;8.490;2023-02-19T07:03:44;101104.72;;;8.81;91.54
45467;BME280;31212;49.734;8.490;2023-02-19T07:06:10;101097.97;;;8.88;91.33
45467;BME280;31212;49.734;8.490;2023-02-19T07:08:38;101098.88;;;8.90;90.93
45467;BME280;31212;49.734;8.490;2023-02-19T07:11:05;101103.25;;;8.92;90.48
45467;BME280;31212;49.734;8.490;2023-02-19T07:13:31;101096.50;;;9.01;90.36
45467;BME280;31212;49.734;8.490;2023-02-19T07:15:59;101089.75;;;9.07;89.56
45467;BME280;31212;49.734;8.490;2023-02-19T07:18:26;101075.94;;;9.07;89.17
45467;BME280;31212;49.734;8.490;2023-02-19T07:20:52;101073.50;;;9.16;89.14
45467;BME280;31212;49.734;8.490;2023-02-19T07:23:19;101059.00;;;9.24;88.13
45467;BME280;31212;49.734;8.490;2023-02-19T07:25:47;101039.34;;;9.36;87.38
45467;BME280;31212;49.734;8.490;2023-02-19T07:28:14;101014.28;;;9.36;86.47
45467;BME280;31212;49.734;8.490;2023-02-19T07:30:40;101004.88;;;9.41;86.07
45467;BME280;31212;49.734;8.490;2023-02-19T07:33:07;100984.31;;;9.52;84.94
45467;BME280;31212;49.734;8.490;2023-02-19T07:35:33;100980.09;;;9.57;84.35
45467;BME280;31212;49.734;8.490;2023-02-19T07:38:00;100975.03;;;9.64;83.89
45467;BME280;31212;49.734;8.490;2023-02-19T07:40:26;100948.41;;;9.77;82.83
45467;BME280;31212;49.734;8.490;2023-02-19T07:42:54;100929.56;;;9.89;82.39
45467;BME280;31212;49.734;8.490;2023-02-19T07:45:20;100903.72;;;9.95;81.33
45467;BME280;31212;49.734;8.490;2023-02-19T07:47:47;100883.88;;;9.99;80.43
45467;BME280;31212;49.734;8.490;2023-02-19T07:50:13;100862.41;;;10.09;80.12
45467;BME280;31212;49.734;8.490;2023-02-19T07:52:40;100855.44;;;10.06;79.71
45467;BME280;31212;49.734;8.490;2023-02-19T07:55:06;100833.00;;;10.08;78.93
45467;BME280;31212;49.734;8.490;2023-02-19T07:57:33;100839.13;;;10.15;78.58
45467;BME280;31212;49.734;8.490;2023-02-19T08:00:01;100825.28;;;10.15;78.19
45467;BME280;31212;49.734;8.490;2023-02-19T08:02:37;100840.94;;;10.24;78.29
45467;BME280;31212;49.734;8.490;2023-02-19T08:05:22;100827.16;;;10.28;77.95
45467;BME280;31212;49.734;8.490;2023-02-19T08:07:48;100823.75;;;10.32;78.24
45467;BME280;31212;49.734;8.490;2023-02-19T08:10:15;100822.16;;;10.42;77.86
45467;BME280;31212;49.734;8.490;2023-02-19T08:13:00;100799.75;;;10.49;77.03
45467;BME280;31212;49.734;8.490;2023-02-19T08:15:49;100791.06;;;10.50;76.77
45467;BME280;31212;49.734;8.490;2023-02-19T08:18:17;100792.91;;;10.58;76.05
45467;BME280;31212;49.734;8.490;2023-02-19T08:20:44;100792.09;;;10.67;76.22
45467;BME280;31212;49.734;8.490;2023-02-19T08:23:11;100778.25;;;10.64;76.07
45467;BME280;31212;49.734;8.490;2023-02-19T08:25:39;100782.63;;;10.71;75.67
45467;BME280;31212;49.734;8.490;2023-02-19T08:28:07;100780.09;;;10.77;75.77
45467;BME280;31212;49.734;8.490;2023-02-19T08:30:35;100779.25;;;10.83;75.67
45467;BME280;31212;49.734;8.490;2023-02-19T08:33:05;100769.72;;;10.80;74.92
45467;BME280;31212;49.734;8.490;2023-02-19T08:35:33;100787.97;;;10.89;75.47
45467;BME280;31212;49.734;8.490;2023-02-19T08:38:01;100769.81;;;10.92;74.79
45467;BME280;31212;49.734;8.490;2023-02-19T08:40:27;100781.97;;;11.00;74.69
45467;BME280;31212;49.734;8.490;2023-02-19T08:42:54;100781.97;;;10.98;74.55
45467;BME280;31212;49.734;8.490;2023-02-19T08:45:20;100789.03;;;11.16;74.37
45467;BME280;31212;49.734;8.490;2023-02-19T08:47:48;100776.91;;;11.20;74.43
45467;BME280;31212;49.734;8.490;2023-02-19T08:50:16;100769.19;;;11.27;73.62
45467;BME280;31212;49.734;8.490;2023-02-19T08:52:42;100761.38;;;11.23;73.19
45467;BME280;31212;49.734;8.490;2023-02-19T08:55:09;100769.13;;;11.18;73.22
45467;BME280;31212;49.734;8.490;2023-02-19T08:57:35;100787.16;;;10.98;73.75
45467;BME280;31212;49.734;8.490;2023-02-19T09:00:03;100798.38;;;10.94;74.49
45467;BME280;31212;49.734;8.490;2023-02-19T09:02:30;100825.19;;;10.85;74.91
45467;BME280;31212;49.734;8.490;2023-02-19T09:04:56;100826.78;;;10.74;74.07
45467;BME280;31212;49.734;8.490;2023-02-19T09:07:24;100824.25;;;10.77;74.18
45467;BME280;31212;49.734;8.490;2023-02-19T09:09:51;100827.78;;;10.88;75.04
45467;BME280;31212;49.734;8.490;2023-02-19T09:12:17;100795.84;;;11.00;74.23
45467;BME280;31212;49.734;8.490;2023-02-19T09:14:44;100795.03;;;11.10;73.59
45467;BME280;31212;49.734;8.490;2023-02-19T09:17:11;100789.06;;;11.25;73.26
45467;BME280;31212;49.734;8.490;2023-02-19T09:19:38;100782.25;;;11.38;72.82
45467;BME280;31212;49.734;8.490;2023-02-19T09:22:04;100773.63;;;11.49;72.32
45467;BME280;31212;49.734;8.490;2023-02-19T09:24:32;100762.44;;;11.68;72.21
45467;BME280;31212;49.734;8.490;2023-02-19T09:26:59;100739.13;;;11.84;71.60
45467;BME280;31212;49.734;8.490;2023-02-19T09:29:27;100732.19;;;11.92;71.52
45467;BME280;31212;49.734;8.490;2023-02-19T09:31:56;100700.97;;;11.90;71.23
45467;BME280;31212;49.734;8.490;2023-02-19T09:34:23;100697.53;;;12.01;70.88
45467;BME280;31212;49.734;8.490;2023-02-19T09:36:51;100701.88;;;12.02;70.67
45467;BME280;31212;49.734;8.490;2023-02-19T09:39:18;100718.38;;;11.96;70.64
45467;BME280;31212;49.734;8.490;2023-02-19T09:41:48;100720.03;;;11.91;71.28
45467;BME280;31212;49.734;8.490;2023-02-19T09:44:23;100744.41;;;12.08;70.87
45467;BME280;31212;49.734;8.490;2023-02-19T09:46:52;100734.00;;;12.15;70.69
45467;BME280;31212;49.734;8.490;2023-02-19T09:49:21;100711.47;;;12.34;69.92
45467;BME280;31212;49.734;8.490;2023-02-19T09:51:51;100692.38;;;12.28;69.48
45467;BME280;31212;49.734;8.490;2023-02-19T09:54:21;100664.59;;;12.20;69.72
45467;BME280;31212;49.734;8.490;2023-02-19T09:56:50;100664.59;;;12.10;69.39
45467;BME280;31212;49.734;8.490;2023-02-19T09:59:20;100692.38;;;12.28;69.68
45467;BME280;31212;49.734;8.490;2023-02-19T10:01:51;100704.53;;;12.54;69.40
45467;BME280;31212;49.734;8.490;2023-02-19T10:04:20;100641.16;;;12.57;68.61
45467;BME280;31212;49.734;8.490;2023-02-19T10:06:46;100582.19;;;12.30;68.00
45467;BME280;31212;49.734;8.490;2023-02-19T10:09:21;100599.53;;;12.29;68.41
45467;BME280;31212;49.734;8.490;2023-02-19T10:11:53;100598.66;;;12.39;67.66
45467;BME280;31212;49.734;8.490;2023-02-19T10:14:24;100533.56;;;12.33;66.98
45467;BME280;31212;49.734;8.490;2023-02-19T10:16:53;100519.72;;;12.30;66.84
45467;BME280;31212;49.734;8.490;2023-02-19T10:19:23;100557.00;;;12.39;66.93
45467;BME280;31212;49.734;8.490;2023-02-19T10:21:49;100586.41;;;12.72;67.16
45467;BME280;31212;49.734;8.490;2023-02-19T10:24:21;100509.84;;;13.07;65.39
45467;BME280;31212;49.734;8.490;2023-02-19T10:26:51;100483.22;;;13.85;64.13
45467;BME280;31212;49.734;8.490;2023-02-19T10:29:18;100398.00;;;14.57;62.25
45467;BME280;31212;49.734;8.490;2023-02-19T10:31:45;100195.53;;;15.73;58.14
45467;BME280;31212;49.734;8.490;2023-02-19T10:34:16;100113.25;;;16.23;56.30
45467;BME280;31212;49.734;8.490;2023-02-19T10:36:46;100111.84;;;16.09;56.18
45467;BME280;31212;49.734;8.490;2023-02-19T10:39:37;100150.47;;;15.17;57.81
45467;BME280;31212;49.734;8.490;2023-02-19T10:42:14;100249.63;;;14.20;59.71
45467;BME280;31212;49.734;8.490;2023-02-19T10:44:44;100299.56;;;13.12;60.90
45467;BME280;31212;49.734;8.490;2023-02-19T10:47:16;100355.50;;;12.65;61.94
45467;BME280;31212;49.734;8.490;2023-02-19T10:49:44;100431.16;;;12.36;63.21
45467;BME280;31212;49.734;8.490;2023-02-19T10:52:14;100466.75;;;12.35;63.29
45467;BME280;31212;49.734;8.490;2023-02-19T10:54:44;100508.41;;;12.35;63.78
45467;BME280;31212;49.734;8.490;2023-02-19T10:57:29;100543.09;;;12.43;63.83
45467;BME280;31212;49.734;8.490;2023-02-19T10:59:58;100579.53;;;12.45;64.62
45467;BME280;31212;49.734;8.490;2023-02-19T11:02:27;100544.81;;;12.43;64.33
45467;BME280;31212;49.734;8.490;2023-02-19T11:05:04;100570.00;;;12.49;64.09
45467;BME280;31212;49.734;8.490;2023-02-19T11:07:31;100549.16;;;12.45;63.78
45467;BME280;31212;49.734;8.490;2023-02-19T11:09:58;100556.97;;;12.44;64.17
45467;BME280;31212;49.734;8.490;2023-02-19T11:12:27;100529.19;;;12.49;63.81
45467;BME280;31212;49.734;8.490;2023-02-19T11:14:55;100551.72;;;12.70;63.58
45467;BME280;31212;49.734;8.490;2023-02-19T11:17:23;100514.25;;;12.91;62.88
45467;BME280;31212;49.734;8.490;2023-02-19T11:19:52;100500.22;;;13.16;62.67
45467;BME280;31212;49.734;8.490;2023-02-19T11:22:28;100501.81;;;13.48;62.34
45467;BME280;31212;49.734;8.490;2023-02-19T11:25:05;100456.53;;;13.58;61.58
45467;BME280;31212;49.734;8.490;2023-02-19T11:27:33;100445.22;;;13.56;61.56
45467;BME280;31212;49.734;8.490;2023-02-19T11:30:26;100415.81;;;13.35;61.34
45467;BME280;31212;49.734;8.490;2023-02-19T11:33:13;100367.06;;;13.50;60.66
45467;BME280;31212;49.734;8.490;2023-02-19T11:35:45;100299.31;;;13.42;59.64
45467;BME280;31212;49.734;8.490;2023-02-19T11:38:14;100241.28;;;13.18;59.27
45467;BME280;31212;49.734;8.490;2023-02-19T11:40:44;100277.09;;;12.98;59.61
45467;BME280;31212;49.734;8.490;2023-02-19T11:43:23;100280.66;;;12.87;59.86
45467;BME280;31212;49.734;8.490;2023-02-19T11:45:59;100326.78;;;12.77;60.47
45467;BME280;31212;49.734;8.490;2023-02-19T11:48:35;100574.34;;;12.37;63.98
45467;BME280;31212;49.734;8.490;2023-02-19T11:51:17;100736.50;;;11.85;67.10
45467;BME280;31212;49.734;8.490;2023-02-19T11:53:52;100789.34;;;11.73;68.06
45467;BME280;31212;49.734;8.490;2023-02-19T11:56:27;100789.38;;;11.80;67.95
45467;BME280;31212;49.734;8.490;2023-02-19T11:59:00;100792.84;;;11.86;67.86
45467;BME280;31212;49.734;8.490;2023-02-19T12:01:52;100766.88;;;11.92;67.46
45467;BME280;31212;49.734;8.490;2023-02-19T12:07:17;100648.97;;;11.97;65.01
45467;BME280;31212;49.734;8.490;2023-02-19T12:09:54;100659.38;;;11.98;65.81
45467;BME280;31212;49.734;8.490;2023-02-19T12:12:35;100633.38;;;12.04;65.11
45467;BME280;31212;49.734;8.490;2023-02-19T12:21:19;100530.13;;;12.30;63.28
45467;BME280;31212;49.734;8.490;2023-02-19T12:23:57;100527.44;;;12.50;62.83
45467;BME280;31212;49.734;8.490;2023-02-19T12:26:33;100500.50;;;12.61;63.20
45467;BME280;31212;49.734;8.490;2023-02-19T12:29:19;100470.72;;;13.09;62.01
45467;BME280;31212;49.734;8.490;2023-02-19T12:32:01;100468.69;;;13.57;61.63
45467;BME280;31212;49.734;8.490;2023-02-19T12:34:53;100455.34;;;13.93;61.16
45467;BME280;31212;49.734;8.490;2023-02-19T12:37:39;100395.16;;;14.05;59.90
45467;BME280;31212;49.734;8.490;2023-02-19T12:40:19;100329.38;;;13.74;59.75
45467;BME280;31212;49.734;8.490;2023-02-19T12:42:54;100389.44;;;13.69;60.54
45467;BME280;31212;49.734;8.490;2023-02-19T12:45:31;100397.44;;;13.54;60.58
45467;BME280;31212;49.734;8.490;2023-02-19T12:48:08;100429.59;;;13.54;60.90
45467;BME280;31212;49.734;8.490;2023-02-19T12:50:39;100438.44;;;13.38;61.39
45467;BME280;31212;49.734;8.490;2023-02-19T12:53:22;100424.41;;;13.51;60.87
45467;BME280;31212;49.734;8.490;2023-02-19T12:55:51;100420.84;;;13.60;60.54
45467;BME280;31212;49.734;8.490;2023-02-19T12:58:28;100436.31;;;13.78;60.38
45467;BME280;31212;49.734;8.490;2023-02-19T13:00:57;100430.94;;;13.94;60.41
45467;BME280;31212;49.734;8.490;2023-02-19T13:03:29;100363.03;;;14.00;59.78
45467;BME280;31212;49.734;8.490;2023-02-19T13:06:03;100293.72;;;13.76;58.97
45467;BME280;31212;49.734;8.490;2023-02-19T13:08:37;100273.06;;;13.57;58.83
45467;BME280;31212;49.734;8.490;2023-02-19T13:11:08;100150.91;;;13.20;57.58
45467;BME280;31212;49.734;8.490;2023-02-19T13:13:39;100174.56;;;13.02;58.21
45467;BME280;31212;49.734;8.490;2023-02-19T13:16:12;100204.13;;;12.99;58.60
45467;BME280;31212;49.734;8.490;2023-02-19T13:18:43;100178.88;;;13.06;57.99
45467;BME280;31212;49.734;8.490;2023-02-19T13:21:12;100223.16;;;13.06;58.58